createdAt,value
2019-06-08T00:00:54.762Z,27.08
2019-06-08T00:03:30.280Z,27.07
2019-06-08T00:06:04.183Z,27.06
2019-06-08T00:08:37.929Z,27.07
2019-06-08T00:11:12.754Z,27.06
2019-06-08T00:13:46.707Z,27.06
2019-06-08T00:16:21.473Z,27.06
2019-06-08T00:18:55.245Z,27.05
2019-06-08T00:21:29.022Z,27.03
2019-06-08T00:24:03.203Z,27.03
2019-06-08T00:26:37.048Z,27.03
2019-06-08T00:29:10.808Z,27.04
2019-06-08T00:31:44.587Z,27.05
2019-06-08T00:34:18.526Z,27.03
2019-06-08T00:36:52.604Z,27.03
2019-06-08T00:39:26.329Z,27.02
2019-06-08T00:42:00.030Z,27.00
2019-06-08T00:44:33.742Z,26.99
2019-06-08T00:47:07.574Z,26.97
2019-06-08T00:49:41.291Z,26.95
2019-06-08T00:52:15.066Z,26.93
2019-06-08T00:54:48.910Z,26.93
2019-06-08T00:57:23.833Z,26.90
2019-06-08T00:59:59.634Z,26.90
2019-06-08T01:02:33.969Z,26.88
2019-06-08T01:05:07.760Z,26.88
2019-06-08T01:07:41.736Z,26.87
2019-06-08T01:10:15.669Z,26.84
2019-06-08T01:12:49.466Z,26.84
2019-06-08T01:15:29.307Z,26.85
2019-06-08T01:18:03.709Z,26.85
2019-06-08T01:20:34.131Z,26.85
2019-06-08T01:23:09.749Z,26.86
2019-06-08T01:25:44.763Z,26.87
2019-06-08T01:28:19.853Z,26.88
2019-06-08T01:30:53.770Z,26.87
2019-06-08T01:33:28.785Z,26.85
2019-06-08T01:36:02.656Z,26.84
2019-06-08T01:38:36.715Z,26.83
2019-06-08T01:41:12.286Z,26.81
2019-06-08T01:43:48.062Z,26.82
2019-06-08T01:46:21.940Z,26.80
2019-06-08T01:48:55.779Z,26.81
2019-06-08T01:51:30.574Z,26.84
2019-06-08T01:54:04.588Z,26.84
2019-06-08T01:56:38.755Z,26.82
2019-06-08T01:59:12.999Z,26.81
2019-06-08T02:01:46.770Z,26.81
2019-06-08T02:04:20.726Z,26.81
2019-06-08T02:06:54.480Z,26.80
2019-06-08T02:09:28.705Z,26.81
2019-06-08T02:12:02.782Z,26.80
2019-06-08T02:14:36.732Z,26.80
2019-06-08T02:17:10.582Z,26.80
2019-06-08T02:19:44.439Z,26.79
2019-06-08T02:22:18.352Z,26.80
2019-06-08T02:24:52.494Z,26.82
2019-06-08T02:27:27.245Z,26.83
2019-06-08T02:30:01.286Z,26.88
2019-06-08T02:32:36.826Z,26.88
2019-06-08T02:35:10.440Z,26.88
2019-06-08T02:37:44.419Z,26.86
2019-06-08T02:40:18.304Z,26.84
2019-06-08T02:42:52.387Z,26.81
2019-06-08T02:45:26.102Z,26.80
2019-06-08T02:47:59.888Z,26.77
2019-06-08T02:50:53.903Z,26.80
2019-06-08T02:53:29.628Z,26.84
2019-06-08T02:56:03.758Z,26.80
2019-06-08T02:58:39.102Z,26.83
2019-06-08T03:01:13.068Z,26.79
2019-06-08T03:03:46.848Z,26.78
2019-06-08T03:06:23.347Z,26.76
2019-06-08T03:08:57.549Z,26.78
2019-06-08T03:11:32.636Z,26.79
2019-06-08T03:14:08.318Z,26.75
2019-06-08T03:16:43.333Z,26.74
2019-06-08T03:19:22.200Z,26.77
2019-06-08T03:21:53.101Z,26.79
2019-06-08T03:24:27.117Z,26.82
2019-06-08T03:27:00.844Z,26.81
2019-06-08T03:29:35.533Z,26.78
2019-06-08T03:32:10.350Z,26.79
2019-06-08T03:34:54.640Z,26.78
2019-06-08T03:37:19.800Z,26.77
2019-06-08T03:39:53.621Z,26.77
2019-06-08T03:42:27.537Z,26.78
2019-06-08T03:45:01.197Z,26.75
2019-06-08T03:47:36.878Z,26.76
2019-06-08T03:50:10.512Z,26.75
2019-06-08T03:52:46.284Z,26.74
2019-06-08T03:55:20.526Z,26.75
2019-06-08T03:57:54.365Z,26.74
2019-06-08T04:00:28.411Z,26.75
2019-06-08T04:03:02.634Z,26.76
2019-06-08T04:05:40.770Z,26.79
2019-06-08T04:08:14.111Z,26.78
2019-06-08T04:10:47.980Z,26.79
2019-06-08T04:13:22.411Z,26.80
2019-06-08T04:15:57.735Z,26.83
2019-06-08T04:18:31.588Z,26.82
2019-06-08T04:21:05.360Z,26.84
2019-06-08T04:23:41.109Z,26.84
2019-06-08T04:26:15.767Z,26.84
2019-06-08T04:28:49.757Z,26.86
2019-06-08T04:31:23.624Z,26.84
2019-06-08T04:33:57.490Z,26.84
2019-06-08T04:36:31.444Z,26.85
2019-06-08T04:39:06.693Z,26.86
2019-06-08T04:41:41.127Z,26.86
2019-06-08T04:44:16.172Z,26.86
2019-06-08T04:46:50.088Z,26.86
2019-06-08T04:49:23.924Z,26.88
2019-06-08T04:51:57.580Z,26.88
2019-06-08T04:54:31.500Z,26.88
2019-06-08T04:57:05.261Z,26.90
2019-06-08T04:59:41.137Z,26.91
2019-06-08T05:02:14.432Z,26.89
2019-06-08T05:04:49.484Z,26.90
2019-06-08T05:07:23.537Z,26.90
2019-06-08T05:09:57.431Z,26.91
2019-06-08T05:12:31.676Z,26.91
2019-06-08T05:15:05.666Z,26.92
2019-06-08T05:17:41.047Z,26.93
2019-06-08T05:20:15.250Z,26.92
2019-06-08T05:22:49.797Z,26.94
2019-06-08T05:25:24.011Z,26.94
2019-06-08T05:27:57.884Z,26.94
2019-06-08T05:30:31.622Z,26.93
2019-06-08T05:33:05.585Z,26.94
2019-06-08T05:35:39.515Z,26.95
2019-06-08T05:38:13.332Z,26.95
2019-06-08T05:40:47.713Z,26.94
2019-06-08T05:43:22.122Z,26.90
2019-06-08T05:45:56.020Z,26.91
2019-06-08T05:48:30.062Z,26.95
2019-06-08T05:51:04.569Z,26.95
2019-06-08T05:53:39.595Z,26.95
2019-06-08T05:56:13.590Z,26.96
2019-06-08T05:58:48.127Z,26.96
2019-06-08T06:01:22.956Z,26.96
2019-06-08T06:03:56.919Z,26.97
2019-06-08T06:06:31.296Z,26.97
2019-06-08T06:09:07.050Z,26.99
2019-06-08T06:11:40.932Z,26.99
2019-06-08T06:14:14.758Z,26.98
2019-06-08T06:16:49.139Z,26.99
2019-06-08T06:19:23.166Z,27.00
2019-06-08T06:21:56.875Z,27.02
2019-06-08T06:24:30.838Z,26.99
2019-06-08T06:27:04.798Z,26.99
2019-06-08T06:29:38.458Z,27.00
2019-06-08T06:32:12.192Z,26.99
2019-06-08T06:34:46.046Z,26.99
2019-06-08T06:37:20.919Z,27.01
2019-06-08T06:39:54.675Z,27.00
2019-06-08T06:42:28.582Z,26.97
2019-06-08T06:45:02.781Z,26.95
2019-06-08T06:47:36.447Z,26.90
2019-06-08T06:50:12.164Z,26.86
2019-06-08T06:52:46.687Z,26.85
2019-06-08T06:55:20.760Z,26.85
2019-06-08T06:57:54.507Z,26.88
2019-06-08T07:00:34.614Z,26.88
2019-06-08T07:03:08.298Z,26.96
2019-06-08T07:05:42.242Z,27.00
2019-06-08T07:08:17.493Z,27.03
2019-06-08T07:10:51.350Z,27.03
2019-06-08T07:13:26.046Z,27.02
2019-06-08T07:16:16.912Z,26.98
2019-06-08T07:18:35.898Z,27.01
2019-06-08T07:21:09.773Z,27.01
2019-06-08T07:23:43.588Z,26.98
2019-06-08T07:26:17.435Z,26.99
2019-06-08T07:28:54.147Z,27.04
2019-06-08T07:31:28.162Z,27.08
2019-06-08T07:34:02.271Z,27.02
2019-06-08T07:36:36.159Z,26.96
2019-06-08T07:39:10.084Z,26.91
2019-06-08T07:41:43.990Z,26.84
2019-06-08T07:44:17.773Z,26.78
2019-06-08T07:46:51.614Z,26.78
2019-06-08T07:49:25.413Z,26.80
2019-06-08T07:52:09.713Z,26.85
2019-06-08T07:54:35.046Z,26.86
2019-06-08T07:57:10.270Z,26.90
2019-06-08T07:59:44.178Z,26.82
2019-06-08T08:02:18.149Z,26.82
2019-06-08T08:04:52.515Z,26.89
2019-06-08T08:07:26.588Z,26.95
2019-06-08T08:10:00.405Z,26.89
2019-06-08T08:12:34.203Z,26.87
2019-06-08T08:15:08.175Z,26.86
2019-06-08T08:17:41.902Z,26.87
2019-06-08T08:20:15.806Z,26.83
2019-06-08T08:22:54.415Z,26.84
2019-06-08T08:25:25.333Z,26.90
2019-06-08T08:28:00.910Z,26.96
2019-06-08T08:30:37.534Z,26.98
2019-06-08T08:33:10.932Z,26.94
2019-06-08T08:35:44.772Z,26.87
2019-06-08T08:38:18.709Z,26.92
2019-06-08T08:40:54.698Z,26.85
2019-06-08T08:43:28.570Z,26.79
2019-06-08T08:46:02.499Z,26.79
2019-06-08T08:48:37.698Z,26.76
2019-06-08T08:51:12.013Z,26.77
2019-06-08T08:53:48.201Z,26.70
2019-06-08T08:56:22.101Z,26.72
2019-06-08T08:58:59.158Z,26.71
2019-06-08T09:01:31.686Z,26.72
2019-06-08T09:04:08.555Z,26.69
2019-06-08T09:06:41.217Z,26.74
2019-06-08T09:09:18.352Z,26.73
2019-06-08T09:11:51.583Z,26.72
2019-06-08T09:14:28.068Z,26.81
2019-06-08T09:17:03.419Z,26.84
2019-06-08T09:19:40.365Z,26.84
2019-06-08T09:22:14.839Z,26.84
2019-06-08T09:24:48.897Z,26.82
2019-06-08T09:27:22.949Z,26.83
2019-06-08T09:29:59.684Z,26.79
2019-06-08T09:32:34.647Z,26.77
2019-06-08T09:35:09.373Z,26.79
2019-06-08T09:37:43.771Z,26.84
2019-06-08T09:40:19.854Z,26.84
2019-06-08T09:43:01.053Z,26.86
2019-06-08T09:45:30.468Z,26.87
2019-06-08T09:48:05.655Z,26.94
2019-06-08T09:50:40.059Z,26.92
2019-06-08T09:53:23.878Z,26.93
2019-06-08T09:55:49.668Z,26.95
2019-06-08T09:58:23.511Z,26.95
2019-06-08T10:01:01.046Z,26.96
2019-06-08T10:03:33.166Z,26.94
2019-06-08T10:06:11.540Z,26.92
2019-06-08T10:08:42.729Z,26.94
2019-06-08T10:11:16.761Z,26.95
2019-06-08T10:13:50.638Z,26.95
2019-06-08T10:16:24.825Z,26.97
2019-06-08T10:19:03.151Z,26.99
2019-06-08T10:21:34.515Z,26.97
2019-06-08T10:24:09.494Z,26.95
2019-06-08T10:26:43.883Z,26.94
2019-06-08T10:29:18.459Z,26.97
2019-06-08T10:31:53.047Z,26.74
2019-06-08T10:34:27.276Z,26.71
2019-06-08T10:37:08.314Z,26.74
2019-06-08T10:39:38.620Z,26.81
2019-06-08T10:42:13.094Z,26.79
2019-06-08T10:44:47.045Z,26.74
2019-06-08T10:47:21.148Z,26.77
2019-06-08T10:49:54.956Z,26.81
2019-06-08T10:52:28.668Z,26.79
2019-06-08T10:55:04.665Z,26.81
2019-06-08T10:57:38.831Z,26.66
2019-06-08T11:00:22.618Z,26.73
2019-06-08T11:02:49.939Z,26.78
2019-06-08T11:05:23.946Z,26.69
2019-06-08T11:07:59.339Z,26.73
2019-06-08T11:10:33.473Z,26.70
2019-06-08T11:13:13.314Z,26.63
2019-06-08T11:15:43.170Z,26.64
2019-06-08T11:18:18.613Z,26.71
2019-06-08T11:20:52.629Z,26.72
2019-06-08T11:23:28.620Z,26.73
2019-06-08T11:26:04.633Z,26.81
2019-06-08T11:28:38.330Z,26.82
2019-06-08T11:31:16.111Z,26.84
2019-06-08T11:33:51.386Z,26.83
2019-06-08T11:36:28.189Z,26.83
2019-06-08T11:39:02.917Z,26.81
2019-06-08T11:41:37.943Z,26.82
2019-06-08T11:44:14.918Z,26.85
2019-06-08T11:46:49.873Z,26.82
2019-06-08T11:49:27.729Z,26.80
2019-06-08T11:52:00.716Z,26.77
2019-06-08T11:54:40.022Z,26.83
2019-06-08T11:57:12.792Z,26.85
2019-06-08T11:59:48.464Z,26.89
2019-06-08T12:02:22.900Z,26.87
2019-06-08T12:04:57.256Z,26.86
2019-06-08T12:07:32.336Z,26.85
2019-06-08T12:10:09.664Z,26.80
2019-06-08T12:12:43.148Z,26.79
2019-06-08T12:15:18.149Z,26.84
2019-06-08T12:17:53.056Z,26.89
2019-06-08T12:20:28.007Z,26.88
2019-06-08T12:23:01.960Z,26.91
2019-06-08T12:25:37.755Z,26.86
2019-06-08T12:28:12.586Z,26.82
2019-06-08T12:30:47.918Z,26.84
2019-06-08T12:33:22.969Z,26.87
2019-06-08T12:35:57.895Z,26.85
2019-06-08T12:38:34.635Z,26.82
2019-06-08T12:41:09.629Z,26.81
2019-06-08T12:43:43.497Z,26.91
2019-06-08T12:46:19.820Z,26.94
2019-06-08T12:48:53.150Z,26.94
2019-06-08T12:51:28.085Z,26.95
2019-06-08T12:54:02.311Z,26.96
2019-06-08T12:56:37.785Z,26.97
2019-06-08T12:59:15.283Z,26.97
2019-06-08T13:01:48.423Z,26.96
2019-06-08T13:04:23.803Z,26.96
2019-06-08T13:06:58.460Z,26.96
2019-06-08T13:09:32.797Z,26.96
2019-06-08T13:12:07.931Z,26.96
2019-06-08T13:14:41.891Z,26.96
2019-06-08T13:17:19.264Z,26.98
2019-06-08T13:19:51.850Z,26.97
2019-06-08T13:22:29.021Z,26.98
2019-06-08T13:25:15.687Z,26.99
2019-06-08T13:27:37.970Z,26.99
2019-06-08T13:30:15.439Z,26.98
2019-06-08T13:32:48.234Z,26.99
2019-06-08T13:35:22.533Z,26.97
2019-06-08T13:37:57.618Z,26.97
2019-06-08T13:40:31.861Z,26.96
2019-06-08T13:43:07.962Z,26.95
2019-06-08T13:45:40.958Z,26.95
2019-06-08T13:48:16.025Z,26.94
2019-06-08T13:50:52.271Z,26.92
2019-06-08T13:53:29.356Z,26.94
2019-06-08T13:56:02.000Z,26.91
2019-06-08T13:58:38.211Z,26.92
2019-06-08T14:01:13.400Z,26.92
2019-06-08T14:03:49.993Z,26.91
2019-06-08T14:06:24.979Z,26.94
2019-06-08T14:08:59.324Z,26.95
2019-06-08T14:11:33.052Z,26.95
2019-06-08T14:14:08.518Z,26.93
2019-06-08T14:16:42.741Z,26.92
2019-06-08T14:19:19.360Z,26.91
2019-06-08T14:21:52.330Z,26.93
2019-06-08T14:24:32.149Z,26.92
2019-06-08T14:27:02.106Z,26.92
2019-06-08T14:29:36.061Z,26.92
2019-06-08T14:32:09.765Z,26.92
2019-06-08T14:34:49.752Z,26.94
2019-06-08T14:37:24.864Z,26.94
2019-06-08T14:39:58.619Z,26.92
2019-06-08T14:42:34.003Z,26.93
2019-06-08T14:45:10.807Z,26.91
2019-06-08T14:47:47.587Z,26.90
2019-06-08T14:50:22.929Z,26.90
2019-06-08T14:52:58.806Z,26.90
2019-06-08T14:55:34.371Z,26.88
2019-06-08T14:58:09.129Z,26.88
2019-06-08T15:00:45.260Z,26.90
2019-06-08T15:03:21.146Z,26.88
2019-06-08T15:05:55.168Z,26.87
2019-06-08T15:08:31.121Z,26.86
2019-06-08T15:11:07.921Z,26.87
2019-06-08T15:13:41.721Z,26.89
2019-06-08T15:16:18.028Z,26.88
2019-06-08T15:18:51.294Z,26.88
2019-06-08T15:21:26.506Z,26.84
2019-06-08T15:24:02.121Z,26.83
2019-06-08T15:26:42.337Z,26.82
2019-06-08T15:29:12.031Z,26.82
2019-06-08T15:31:48.216Z,26.83
2019-06-08T15:34:23.251Z,26.81
2019-06-08T15:36:57.573Z,26.83
2019-06-08T15:39:33.986Z,26.83
2019-06-08T15:42:08.258Z,26.84
2019-06-08T15:44:42.523Z,26.83
2019-06-08T15:47:18.041Z,26.83
2019-06-08T15:49:52.722Z,26.83
2019-06-08T15:52:29.539Z,26.84
2019-06-08T15:55:02.350Z,26.85
2019-06-08T15:57:40.359Z,26.85
2019-06-08T16:00:11.670Z,26.87
2019-06-08T16:02:45.626Z,26.86
2019-06-08T16:05:19.692Z,26.86
2019-06-08T16:07:53.850Z,26.85
2019-06-08T16:10:28.130Z,26.85
2019-06-08T16:13:04.214Z,26.86
2019-06-08T16:15:39.648Z,26.88
2019-06-08T16:18:14.078Z,26.86
2019-06-08T16:20:50.743Z,26.35
2019-06-08T16:23:25.351Z,26.19
2019-06-08T16:25:59.313Z,26.06
2019-06-08T16:28:34.167Z,25.94
2019-06-08T16:31:08.004Z,25.92
2019-06-08T16:33:44.189Z,26.03
2019-06-08T16:36:17.725Z,25.94
2019-06-08T16:38:53.008Z,25.82
2019-06-08T16:41:27.764Z,25.91
2019-06-08T16:44:06.098Z,25.88
2019-06-08T16:46:38.605Z,25.70
2019-06-08T16:49:12.706Z,25.90
2019-06-08T16:51:47.184Z,25.94
2019-06-08T16:54:20.977Z,26.01
2019-06-08T16:57:08.968Z,25.95
2019-06-08T16:59:30.539Z,25.71
2019-06-08T17:02:06.288Z,25.70
2019-06-08T17:04:41.650Z,25.77
2019-06-08T17:07:16.172Z,25.96
2019-06-08T17:09:50.909Z,25.94
2019-06-08T17:12:25.394Z,26.18
2019-06-08T17:14:59.606Z,26.38
2019-06-08T17:17:34.684Z,26.49
2019-06-08T17:20:09.834Z,26.53
2019-06-08T17:22:43.741Z,26.55
2019-06-08T17:25:17.552Z,26.58
2019-06-08T17:27:51.418Z,26.60
2019-06-08T17:30:25.282Z,26.61
2019-06-08T17:32:59.323Z,26.62
2019-06-08T17:35:35.595Z,26.63
2019-06-08T17:38:09.560Z,26.66
2019-06-08T17:40:44.366Z,26.67
2019-06-08T17:43:19.279Z,26.67
2019-06-08T17:45:53.018Z,26.68
2019-06-08T17:48:28.009Z,26.68
2019-06-08T17:51:02.024Z,26.69
2019-06-08T17:53:36.955Z,26.68
2019-06-08T17:56:10.903Z,26.70
2019-06-08T17:58:46.148Z,26.70
2019-06-08T18:01:21.423Z,26.70
2019-06-08T18:03:57.359Z,26.72
2019-06-08T18:06:30.972Z,26.73
2019-06-08T18:09:07.870Z,26.73
2019-06-08T18:11:43.481Z,26.73
2019-06-08T18:14:19.351Z,26.73
2019-06-08T18:16:53.302Z,26.74
2019-06-08T18:19:29.845Z,26.74
2019-06-08T18:22:05.703Z,26.76
2019-06-08T18:24:40.889Z,26.76
2019-06-08T18:27:17.827Z,26.76
2019-06-08T18:29:51.682Z,26.75
2019-06-08T18:32:27.213Z,26.75
2019-06-08T18:35:01.062Z,26.75
2019-06-08T18:37:34.893Z,26.74
2019-06-08T18:40:09.072Z,26.74
2019-06-08T18:42:44.619Z,26.75
2019-06-08T18:45:19.434Z,26.75
2019-06-08T18:47:53.608Z,26.74
2019-06-08T18:50:28.475Z,26.74
2019-06-08T18:53:03.780Z,26.74
2019-06-08T18:55:40.541Z,26.74
2019-06-08T18:58:21.270Z,26.75
2019-06-08T19:00:51.380Z,26.76
2019-06-08T19:03:25.100Z,26.75
2019-06-08T19:05:59.024Z,26.75
2019-06-08T19:08:32.952Z,26.74
2019-06-08T19:11:08.118Z,26.75
2019-06-08T19:13:42.571Z,26.76
2019-06-08T19:16:18.176Z,26.76
2019-06-08T19:18:52.923Z,26.78
2019-06-08T19:21:27.803Z,26.78
2019-06-08T19:24:03.879Z,26.78
2019-06-08T19:26:40.978Z,26.78
2019-06-08T19:29:13.222Z,26.78
2019-06-08T19:31:51.182Z,26.76
2019-06-08T19:34:24.004Z,26.77
2019-06-08T19:36:57.942Z,26.78
2019-06-08T19:39:32.175Z,26.78
2019-06-08T19:42:07.988Z,26.78
2019-06-08T19:44:50.556Z,26.81
2019-06-08T19:47:17.727Z,26.80
2019-06-08T19:49:54.742Z,26.80
2019-06-08T19:52:27.568Z,26.80
2019-06-08T19:55:01.491Z,26.81
2019-06-08T19:57:35.149Z,26.81
2019-06-08T20:00:09.022Z,26.81
2019-06-08T20:02:44.544Z,26.83
2019-06-08T20:05:18.853Z,26.83
2019-06-08T20:07:53.729Z,26.84
2019-06-08T20:10:28.120Z,26.83
2019-06-08T20:13:02.355Z,26.83
2019-06-08T20:15:43.458Z,26.82
2019-06-08T20:18:12.423Z,26.82
2019-06-08T20:20:49.059Z,26.83
2019-06-08T20:23:21.480Z,26.83
2019-06-08T20:25:57.360Z,26.83
2019-06-08T20:28:30.714Z,26.83
2019-06-08T20:31:04.599Z,26.84
2019-06-08T20:33:41.318Z,26.84
2019-06-08T20:36:17.397Z,26.83
2019-06-08T20:38:51.015Z,26.83
2019-06-08T20:41:24.666Z,26.83
2019-06-08T20:43:58.518Z,26.84
2019-06-08T20:46:32.258Z,26.84
2019-06-08T20:49:08.194Z,26.85
2019-06-08T20:51:42.484Z,26.84
2019-06-08T20:54:17.218Z,26.85
2019-06-08T20:56:52.097Z,26.85
2019-06-08T20:59:32.957Z,26.85
2019-06-08T21:02:02.484Z,26.84
2019-06-08T21:04:38.410Z,26.84
2019-06-08T21:07:12.385Z,26.85
2019-06-08T21:09:49.611Z,26.85
2019-06-08T21:12:22.095Z,26.85
2019-06-08T21:14:55.879Z,26.85
2019-06-08T21:17:29.969Z,26.86
2019-06-08T21:20:03.684Z,26.85
2019-06-08T21:22:37.630Z,26.85
2019-06-08T21:25:11.782Z,26.85
2019-06-08T21:27:48.058Z,26.86
2019-06-08T21:30:24.485Z,26.86
2019-06-08T21:33:00.726Z,26.87
2019-06-08T21:35:33.920Z,26.86
2019-06-08T21:38:22.557Z,26.86
2019-06-08T21:40:43.315Z,26.87
2019-06-08T21:43:18.413Z,26.87
2019-06-08T21:45:53.506Z,26.87
2019-06-08T21:48:27.910Z,26.87
2019-06-08T21:51:01.942Z,26.86
2019-06-08T21:53:37.996Z,26.87
2019-06-08T21:56:11.868Z,26.87
2019-06-08T21:58:47.323Z,26.87
2019-06-08T22:01:21.427Z,26.88
2019-06-08T22:03:56.556Z,26.87
2019-06-08T22:06:30.567Z,26.88
2019-06-08T22:09:07.068Z,26.87
2019-06-08T22:11:40.909Z,26.88
2019-06-08T22:14:14.884Z,26.88
2019-06-08T22:16:48.666Z,26.88
2019-06-08T22:19:22.798Z,26.89
2019-06-08T22:21:59.813Z,26.88
2019-06-08T22:24:32.233Z,26.87
2019-06-08T22:27:07.190Z,26.88
2019-06-08T22:29:41.202Z,26.88
2019-06-08T22:32:14.972Z,26.88
2019-06-08T22:34:48.841Z,26.88
2019-06-08T22:37:23.340Z,26.89
2019-06-08T22:39:58.222Z,26.90
2019-06-08T22:42:33.233Z,26.90
2019-06-08T22:45:08.276Z,26.90
2019-06-08T22:47:42.362Z,26.91
2019-06-08T22:50:18.412Z,26.91
2019-06-08T22:52:53.516Z,26.91
2019-06-08T22:55:27.736Z,26.90
2019-06-08T22:58:03.049Z,26.90
2019-06-08T23:00:51.817Z,26.90
2019-06-08T23:03:12.776Z,26.91
2019-06-08T23:05:47.687Z,26.91
2019-06-08T23:08:22.004Z,26.90
2019-06-08T23:10:58.599Z,26.91
2019-06-08T23:13:31.373Z,26.90
2019-06-08T23:16:06.191Z,26.91
2019-06-08T23:18:40.589Z,26.91
2019-06-08T23:21:14.309Z,26.92
2019-06-08T23:23:48.075Z,26.92
2019-06-08T23:26:21.891Z,26.92
2019-06-08T23:28:56.090Z,26.91
2019-06-08T23:31:31.457Z,26.91
2019-06-08T23:34:09.231Z,26.92
2019-06-08T23:36:53.261Z,26.92
2019-06-08T23:39:18.009Z,26.92
2019-06-08T23:41:51.540Z,26.92
2019-06-08T23:44:25.521Z,26.93
2019-06-08T23:47:01.154Z,26.92
2019-06-08T23:49:34.747Z,26.91
2019-06-08T23:52:11.273Z,26.92
2019-06-08T23:54:43.965Z,26.92
2019-06-08T23:57:18.067Z,26.92
2019-06-08T23:59:51.918Z,26.93
